sensor_id;sensor_type;location;lat;lon;timestamp;P1;durP1;ratioP1;P2;durP2;ratioP2
4766;SDS011;2397;53.576;9.746;2023-03-01T00:01:59;5.80;;;4.87;;
4766;SDS011;2397;53.576;9.746;2023-03-01T00:04:26;5.10;;;4.30;;
4766;SDS011;2397;53.576;9.746;2023-03-01T00:06:53;6.00;;;4.53;;
4766;SDS011;2397;53.576;9.746;2023-03-01T00:09:20;8.03;;;5.43;;
4766;SDS011;2397;53.576;9.746;2023-03-01T00:11:47;5.47;;;4.50;;
4766;SDS011;2397;53.576;9.746;2023-03-01T00:14:14;7.20;;;5.17;;
4766;SDS011;2397;53.576;9.746;2023-03-01T00:16:43;5.60;;;4.23;;
4766;SDS011;2397;53.576;9.746;2023-03-01T00:19:14;4.70;;;4.30;;
4766;SDS011;2397;53.576;9.746;2023-03-01T00:21:42;4.80;;;4.20;;
4766;SDS011;2397;53.576;9.746;2023-03-01T00:24:09;6.17;;;4.10;;
4766;SDS011;2397;53.576;9.746;2023-03-01T00:26:36;5.83;;;4.73;;
4766;SDS011;2397;53.576;9.746;2023-03-01T00:29:03;7.00;;;5.13;;
4766;SDS011;2397;53.576;9.746;2023-03-01T00:31:31;4.47;;;3.97;;
4766;SDS011;2397;53.576;9.746;2023-03-01T00:33:59;9.43;;;4.50;;
4766;SDS011;2397;53.576;9.746;2023-03-01T00:36:29;9.17;;;4.90;;
4766;SDS011;2397;53.576;9.746;2023-03-01T00:39:01;7.90;;;4.30;;
4766;SDS011;2397;53.576;9.746;2023-03-01T00:41:30;4.90;;;4.23;;
4766;SDS011;2397;53.576;9.746;2023-03-01T00:43:57;6.17;;;3.87;;
4766;SDS011;2397;53.576;9.746;2023-03-01T00:46:24;5.70;;;4.70;;
4766;SDS011;2397;53.576;9.746;2023-03-01T00:48:52;5.57;;;4.10;;
4766;SDS011;2397;53.576;9.746;2023-03-01T00:51:20;4.00;;;3.60;;
4766;SDS011;2397;53.576;9.746;2023-03-01T00:53:52;4.63;;;4.23;;
4766;SDS011;2397;53.576;9.746;2023-03-01T00:56:20;4.37;;;3.97;;
4766;SDS011;2397;53.576;9.746;2023-03-01T00:58:46;5.87;;;4.47;;
4766;SDS011;2397;53.576;9.746;2023-03-01T01:01:14;5.90;;;4.50;;
4766;SDS011;2397;53.576;9.746;2023-03-01T01:03:46;5.63;;;4.33;;
4766;SDS011;2397;53.576;9.746;2023-03-01T01:06:19;4.33;;;3.97;;
4766;SDS011;2397;53.576;9.746;2023-03-01T01:08:46;5.63;;;4.43;;
4766;SDS011;2397;53.576;9.746;2023-03-01T01:11:12;6.73;;;5.00;;
4766;SDS011;2397;53.576;9.746;2023-03-01T01:13:39;5.13;;;4.03;;
4766;SDS011;2397;53.576;9.746;2023-03-01T01:16:06;5.20;;;4.70;;
4766;SDS011;2397;53.576;9.746;2023-03-01T01:18:32;6.07;;;4.63;;
4766;SDS011;2397;53.576;9.746;2023-03-01T01:21:06;5.03;;;4.17;;
4766;SDS011;2397;53.576;9.746;2023-03-01T01:23:37;5.70;;;4.93;;
4766;SDS011;2397;53.576;9.746;2023-03-01T01:26:09;5.13;;;4.50;;
4766;SDS011;2397;53.576;9.746;2023-03-01T01:28:37;4.77;;;4.37;;
4766;SDS011;2397;53.576;9.746;2023-03-01T01:31:04;6.77;;;4.30;;
4766;SDS011;2397;53.576;9.746;2023-03-01T01:33:31;5.27;;;4.60;;
4766;SDS011;2397;53.576;9.746;2023-03-01T01:35:58;10.33;;;4.27;;
4766;SDS011;2397;53.576;9.746;2023-03-01T01:38:24;5.67;;;4.30;;
4766;SDS011;2397;53.576;9.746;2023-03-01T01:40:51;6.83;;;4.80;;
4766;SDS011;2397;53.576;9.746;2023-03-01T01:43:22;5.93;;;4.93;;
4766;SDS011;2397;53.576;9.746;2023-03-01T01:45:55;5.90;;;5.00;;
4766;SDS011;2397;53.576;9.746;2023-03-01T01:48:27;6.87;;;4.87;;
4766;SDS011;2397;53.576;9.746;2023-03-01T01:51:07;5.00;;;4.43;;
4766;SDS011;2397;53.576;9.746;2023-03-01T01:53:38;9.53;;;5.47;;
4766;SDS011;2397;53.576;9.746;2023-03-01T01:56:06;5.60;;;4.80;;
4766;SDS011;2397;53.576;9.746;2023-03-01T01:58:36;6.67;;;4.93;;
4766;SDS011;2397;53.576;9.746;2023-03-01T02:01:04;7.17;;;4.97;;
4766;SDS011;2397;53.576;9.746;2023-03-01T02:03:31;8.97;;;5.23;;
4766;SDS011;2397;53.576;9.746;2023-03-01T02:06:07;7.00;;;5.23;;
4766;SDS011;2397;53.576;9.746;2023-03-01T02:08:41;6.13;;;5.17;;
4766;SDS011;2397;53.576;9.746;2023-03-01T02:11:08;7.53;;;5.10;;
4766;SDS011;2397;53.576;9.746;2023-03-01T02:13:36;7.73;;;5.00;;
4766;SDS011;2397;53.576;9.746;2023-03-01T02:16:10;7.40;;;5.00;;
4766;SDS011;2397;53.576;9.746;2023-03-01T02:18:39;7.13;;;5.10;;
4766;SDS011;2397;53.576;9.746;2023-03-01T02:24:05;9.07;;;5.57;;
4766;SDS011;2397;53.576;9.746;2023-03-01T02:26:50;8.17;;;5.20;;
4766;SDS011;2397;53.576;9.746;2023-03-01T02:29:20;7.67;;;5.10;;
4766;SDS011;2397;53.576;9.746;2023-03-01T02:31:47;7.20;;;4.83;;
4766;SDS011;2397;53.576;9.746;2023-03-01T02:34:16;5.40;;;4.80;;
4766;SDS011;2397;53.576;9.746;2023-03-01T02:36:47;8.30;;;5.30;;
4766;SDS011;2397;53.576;9.746;2023-03-01T02:39:18;6.63;;;4.90;;
4766;SDS011;2397;53.576;9.746;2023-03-01T02:41:49;6.70;;;4.80;;
4766;SDS011;2397;53.576;9.746;2023-03-01T02:44:18;7.40;;;5.90;;
4766;SDS011;2397;53.576;9.746;2023-03-01T02:46:46;6.87;;;4.60;;
4766;SDS011;2397;53.576;9.746;2023-03-01T02:49:25;7.87;;;5.10;;
4766;SDS011;2397;53.576;9.746;2023-03-01T02:54:49;6.30;;;5.40;;
4766;SDS011;2397;53.576;9.746;2023-03-01T02:57:20;8.87;;;5.23;;
4766;SDS011;2397;53.576;9.746;2023-03-01T02:59:48;6.43;;;5.60;;
4766;SDS011;2397;53.576;9.746;2023-03-01T03:02:20;5.80;;;5.20;;
4766;SDS011;2397;53.576;9.746;2023-03-01T03:05:04;5.63;;;5.10;;
4766;SDS011;2397;53.576;9.746;2023-03-01T03:07:35;11.53;;;7.50;;
4766;SDS011;2397;53.576;9.746;2023-03-01T03:10:04;6.27;;;5.10;;
4766;SDS011;2397;53.576;9.746;2023-03-01T03:12:32;5.80;;;5.23;;
4766;SDS011;2397;53.576;9.746;2023-03-01T03:14:59;11.77;;;5.93;;
4766;SDS011;2397;53.576;9.746;2023-03-01T03:17:25;5.93;;;5.33;;
4766;SDS011;2397;53.576;9.746;2023-03-01T03:19:52;6.50;;;5.00;;
4766;SDS011;2397;53.576;9.746;2023-03-01T03:22:18;6.60;;;5.67;;
4766;SDS011;2397;53.576;9.746;2023-03-01T03:24:45;7.67;;;5.80;;
4766;SDS011;2397;53.576;9.746;2023-03-01T03:27:11;5.27;;;4.77;;
4766;SDS011;2397;53.576;9.746;2023-03-01T03:29:37;5.67;;;5.10;;
4766;SDS011;2397;53.576;9.746;2023-03-01T03:32:04;8.60;;;5.57;;
4766;SDS011;2397;53.576;9.746;2023-03-01T03:34:30;6.63;;;5.03;;
4766;SDS011;2397;53.576;9.746;2023-03-01T03:36:57;5.33;;;4.80;;
4766;SDS011;2397;53.576;9.746;2023-03-01T03:39:26;11.50;;;6.10;;
4766;SDS011;2397;53.576;9.746;2023-03-01T03:41:53;6.77;;;4.93;;
4766;SDS011;2397;53.576;9.746;2023-03-01T03:44:20;9.80;;;5.80;;
4766;SDS011;2397;53.576;9.746;2023-03-01T03:46:47;8.03;;;4.90;;
4766;SDS011;2397;53.576;9.746;2023-03-01T03:49:13;7.30;;;5.20;;
4766;SDS011;2397;53.576;9.746;2023-03-01T03:51:40;7.10;;;5.53;;
4766;SDS011;2397;53.576;9.746;2023-03-01T03:54:06;7.13;;;5.00;;
4766;SDS011;2397;53.576;9.746;2023-03-01T03:56:32;5.80;;;4.70;;
4766;SDS011;2397;53.576;9.746;2023-03-01T03:58:59;6.50;;;4.70;;
4766;SDS011;2397;53.576;9.746;2023-03-01T04:01:26;7.07;;;4.53;;
4766;SDS011;2397;53.576;9.746;2023-03-01T04:03:52;5.30;;;4.87;;
4766;SDS011;2397;53.576;9.746;2023-03-01T04:06:20;5.63;;;4.73;;
4766;SDS011;2397;53.576;9.746;2023-03-01T04:08:47;7.50;;;5.53;;
4766;SDS011;2397;53.576;9.746;2023-03-01T04:11:16;6.40;;;5.03;;
4766;SDS011;2397;53.576;9.746;2023-03-01T04:13:53;6.33;;;5.30;;
4766;SDS011;2397;53.576;9.746;2023-03-01T04:16:21;5.73;;;4.83;;
4766;SDS011;2397;53.576;9.746;2023-03-01T04:18:48;4.73;;;4.27;;
4766;SDS011;2397;53.576;9.746;2023-03-01T04:21:14;6.60;;;4.67;;
4766;SDS011;2397;53.576;9.746;2023-03-01T04:23:41;6.73;;;4.77;;
4766;SDS011;2397;53.576;9.746;2023-03-01T04:26:07;5.40;;;4.80;;
4766;SDS011;2397;53.576;9.746;2023-03-01T04:28:35;6.00;;;4.80;;
4766;SDS011;2397;53.576;9.746;2023-03-01T04:31:04;6.07;;;4.93;;
4766;SDS011;2397;53.576;9.746;2023-03-01T04:33:43;9.70;;;4.30;;
4766;SDS011;2397;53.576;9.746;2023-03-01T04:36:13;5.23;;;4.50;;
4766;SDS011;2397;53.576;9.746;2023-03-01T04:38:41;5.43;;;4.90;;
4766;SDS011;2397;53.576;9.746;2023-03-01T04:41:09;5.43;;;4.07;;
4766;SDS011;2397;53.576;9.746;2023-03-01T04:43:37;5.03;;;4.33;;
4766;SDS011;2397;53.576;9.746;2023-03-01T04:46:04;4.90;;;4.47;;
4766;SDS011;2397;53.576;9.746;2023-03-01T04:48:35;6.80;;;4.93;;
4766;SDS011;2397;53.576;9.746;2023-03-01T04:51:03;6.37;;;4.90;;
4766;SDS011;2397;53.576;9.746;2023-03-01T04:53:30;7.60;;;4.63;;
4766;SDS011;2397;53.576;9.746;2023-03-01T04:55:58;6.00;;;4.80;;
4766;SDS011;2397;53.576;9.746;2023-03-01T04:58:26;4.93;;;4.43;;
4766;SDS011;2397;53.576;9.746;2023-03-01T05:00:53;5.50;;;4.70;;
4766;SDS011;2397;53.576;9.746;2023-03-01T05:03:20;6.90;;;4.47;;
4766;SDS011;2397;53.576;9.746;2023-03-01T05:05:48;4.93;;;4.43;;
4766;SDS011;2397;53.576;9.746;2023-03-01T05:08:16;6.00;;;5.40;;
4766;SDS011;2397;53.576;9.746;2023-03-01T05:10:48;5.63;;;4.67;;
4766;SDS011;2397;53.576;9.746;2023-03-01T05:13:17;7.27;;;4.90;;
4766;SDS011;2397;53.576;9.746;2023-03-01T05:15:48;5.23;;;4.73;;
4766;SDS011;2397;53.576;9.746;2023-03-01T05:18:19;6.10;;;5.40;;
4766;SDS011;2397;53.576;9.746;2023-03-01T05:20:46;6.00;;;4.70;;
4766;SDS011;2397;53.576;9.746;2023-03-01T05:23:13;5.33;;;4.43;;
4766;SDS011;2397;53.576;9.746;2023-03-01T05:25:39;5.97;;;4.40;;
4766;SDS011;2397;53.576;9.746;2023-03-01T05:28:12;5.77;;;4.63;;
4766;SDS011;2397;53.576;9.746;2023-03-01T05:30:39;6.20;;;5.00;;
4766;SDS011;2397;53.576;9.746;2023-03-01T05:33:06;5.30;;;4.80;;
4766;SDS011;2397;53.576;9.746;2023-03-01T05:35:39;6.10;;;4.73;;
4766;SDS011;2397;53.576;9.746;2023-03-01T05:38:08;5.80;;;4.70;;
4766;SDS011;2397;53.576;9.746;2023-03-01T05:40:39;5.80;;;4.73;;
4766;SDS011;2397;53.576;9.746;2023-03-01T05:43:07;6.83;;;4.50;;
4766;SDS011;2397;53.576;9.746;2023-03-01T05:45:35;9.93;;;4.83;;
4766;SDS011;2397;53.576;9.746;2023-03-01T05:48:03;8.87;;;5.37;;
4766;SDS011;2397;53.576;9.746;2023-03-01T05:50:35;5.50;;;4.73;;
4766;SDS011;2397;53.576;9.746;2023-03-01T05:53:04;5.67;;;4.80;;
4766;SDS011;2397;53.576;9.746;2023-03-01T05:55:38;7.47;;;5.00;;
4766;SDS011;2397;53.576;9.746;2023-03-01T05:58:06;6.33;;;4.47;;
4766;SDS011;2397;53.576;9.746;2023-03-01T06:00:35;8.37;;;5.23;;
4766;SDS011;2397;53.576;9.746;2023-03-01T06:03:01;6.70;;;5.00;;
4766;SDS011;2397;53.576;9.746;2023-03-01T06:05:28;5.27;;;4.70;;
4766;SDS011;2397;53.576;9.746;2023-03-01T06:07:54;5.13;;;4.57;;
4766;SDS011;2397;53.576;9.746;2023-03-01T06:10:22;5.87;;;5.27;;
4766;SDS011;2397;53.576;9.746;2023-03-01T06:12:48;6.23;;;4.73;;
4766;SDS011;2397;53.576;9.746;2023-03-01T06:15:15;6.57;;;5.27;;
4766;SDS011;2397;53.576;9.746;2023-03-01T06:17:43;5.20;;;4.70;;
4766;SDS011;2397;53.576;9.746;2023-03-01T06:20:11;8.30;;;5.23;;
4766;SDS011;2397;53.576;9.746;2023-03-01T06:22:38;9.17;;;5.30;;
4766;SDS011;2397;53.576;9.746;2023-03-01T06:25:05;6.90;;;5.00;;
4766;SDS011;2397;53.576;9.746;2023-03-01T06:27:32;8.27;;;6.00;;
4766;SDS011;2397;53.576;9.746;2023-03-01T06:29:59;6.07;;;5.23;;
4766;SDS011;2397;53.576;9.746;2023-03-01T06:32:25;5.80;;;4.47;;
4766;SDS011;2397;53.576;9.746;2023-03-01T06:34:52;7.83;;;4.77;;
4766;SDS011;2397;53.576;9.746;2023-03-01T06:37:18;6.43;;;5.50;;
4766;SDS011;2397;53.576;9.746;2023-03-01T06:39:45;6.20;;;5.57;;
4766;SDS011;2397;53.576;9.746;2023-03-01T06:42:11;8.77;;;4.90;;
4766;SDS011;2397;53.576;9.746;2023-03-01T06:44:37;6.30;;;5.20;;
4766;SDS011;2397;53.576;9.746;2023-03-01T06:47:04;7.57;;;5.10;;
4766;SDS011;2397;53.576;9.746;2023-03-01T06:49:30;6.57;;;5.33;;
4766;SDS011;2397;53.576;9.746;2023-03-01T06:51:57;5.90;;;4.93;;
4766;SDS011;2397;53.576;9.746;2023-03-01T06:54:23;7.40;;;5.10;;
4766;SDS011;2397;53.576;9.746;2023-03-01T06:56:50;9.30;;;5.30;;
4766;SDS011;2397;53.576;9.746;2023-03-01T06:59:17;7.80;;;5.03;;
4766;SDS011;2397;53.576;9.746;2023-03-01T07:01:43;6.50;;;5.20;;
4766;SDS011;2397;53.576;9.746;2023-03-01T07:04:10;6.03;;;4.90;;
4766;SDS011;2397;53.576;9.746;2023-03-01T07:06:37;6.17;;;4.83;;
4766;SDS011;2397;53.576;9.746;2023-03-01T07:09:04;5.63;;;5.03;;
4766;SDS011;2397;53.576;9.746;2023-03-01T07:11:30;5.13;;;4.60;;
4766;SDS011;2397;53.576;9.746;2023-03-01T07:13:56;8.20;;;5.20;;
4766;SDS011;2397;53.576;9.746;2023-03-01T07:16:24;6.90;;;5.80;;
4766;SDS011;2397;53.576;9.746;2023-03-01T07:18:50;6.50;;;5.90;;
4766;SDS011;2397;53.576;9.746;2023-03-01T07:21:17;5.80;;;5.20;;
4766;SDS011;2397;53.576;9.746;2023-03-01T07:23:43;8.03;;;5.90;;
4766;SDS011;2397;53.576;9.746;2023-03-01T07:26:12;6.43;;;4.93;;
4766;SDS011;2397;53.576;9.746;2023-03-01T07:28:39;8.73;;;5.17;;
4766;SDS011;2397;53.576;9.746;2023-03-01T07:31:05;5.80;;;5.30;;
4766;SDS011;2397;53.576;9.746;2023-03-01T07:33:32;7.90;;;5.53;;
4766;SDS011;2397;53.576;9.746;2023-03-01T07:35:59;6.43;;;5.17;;
4766;SDS011;2397;53.576;9.746;2023-03-01T07:38:27;6.73;;;6.03;;
4766;SDS011;2397;53.576;9.746;2023-03-01T07:40:58;6.87;;;5.13;;
4766;SDS011;2397;53.576;9.746;2023-03-01T07:43:27;18.10;;;6.87;;
4766;SDS011;2397;53.576;9.746;2023-03-01T07:45:54;6.03;;;5.47;;
4766;SDS011;2397;53.576;9.746;2023-03-01T07:48:21;7.43;;;6.30;;
4766;SDS011;2397;53.576;9.746;2023-03-01T07:50:47;9.07;;;7.20;;
4766;SDS011;2397;53.576;9.746;2023-03-01T07:53:13;11.53;;;6.60;;
4766;SDS011;2397;53.576;9.746;2023-03-01T07:55:40;6.87;;;6.17;;
4766;SDS011;2397;53.576;9.746;2023-03-01T07:58:07;11.20;;;7.30;;
4766;SDS011;2397;53.576;9.746;2023-03-01T08:00:33;13.67;;;7.57;;
4766;SDS011;2397;53.576;9.746;2023-03-01T08:03:00;10.60;;;7.70;;
4766;SDS011;2397;53.576;9.746;2023-03-01T08:05:27;12.57;;;7.23;;
4766;SDS011;2397;53.576;9.746;2023-03-01T08:07:54;8.50;;;7.57;;
4766;SDS011;2397;53.576;9.746;2023-03-01T08:10:21;11.43;;;8.07;;
4766;SDS011;2397;53.576;9.746;2023-03-01T08:12:47;12.40;;;7.00;;
4766;SDS011;2397;53.576;9.746;2023-03-01T08:15:14;12.47;;;8.10;;
4766;SDS011;2397;53.576;9.746;2023-03-01T08:17:40;11.00;;;8.60;;
4766;SDS011;2397;53.576;9.746;2023-03-01T08:20:07;11.50;;;9.73;;
4766;SDS011;2397;53.576;9.746;2023-03-01T08:22:35;13.80;;;9.53;;
4766;SDS011;2397;53.576;9.746;2023-03-01T08:25:01;15.20;;;10.53;;
4766;SDS011;2397;53.576;9.746;2023-03-01T08:27:28;15.40;;;10.23;;
4766;SDS011;2397;53.576;9.746;2023-03-01T08:29:54;15.80;;;11.43;;
4766;SDS011;2397;53.576;9.746;2023-03-01T08:32:21;18.00;;;11.03;;
4766;SDS011;2397;53.576;9.746;2023-03-01T08:34:47;17.77;;;12.27;;
4766;SDS011;2397;53.576;9.746;2023-03-01T08:37:14;14.90;;;11.23;;
4766;SDS011;2397;53.576;9.746;2023-03-01T08:39:41;17.60;;;11.80;;
4766;SDS011;2397;53.576;9.746;2023-03-01T08:42:07;17.50;;;11.53;;
4766;SDS011;2397;53.576;9.746;2023-03-01T08:44:33;16.10;;;10.90;;
4766;SDS011;2397;53.576;9.746;2023-03-01T08:47:01;16.83;;;11.23;;
4766;SDS011;2397;53.576;9.746;2023-03-01T08:49:28;19.03;;;11.53;;
4766;SDS011;2397;53.576;9.746;2023-03-01T08:51:54;15.80;;;11.50;;
4766;SDS011;2397;53.576;9.746;2023-03-01T08:54:21;16.07;;;10.73;;
4766;SDS011;2397;53.576;9.746;2023-03-01T08:56:48;15.70;;;11.03;;
4766;SDS011;2397;53.576;9.746;2023-03-01T08:59:15;13.30;;;10.93;;
4766;SDS011;2397;53.576;9.746;2023-03-01T09:01:43;14.03;;;10.93;;
4766;SDS011;2397;53.576;9.746;2023-03-01T09:04:10;13.77;;;11.07;;
4766;SDS011;2397;53.576;9.746;2023-03-01T09:06:37;14.10;;;10.20;;
4766;SDS011;2397;53.576;9.746;2023-03-01T09:09:04;13.53;;;10.37;;
4766;SDS011;2397;53.576;9.746;2023-03-01T09:11:31;12.57;;;10.10;;
4766;SDS011;2397;53.576;9.746;2023-03-01T09:13:59;11.20;;;8.83;;
4766;SDS011;2397;53.576;9.746;2023-03-01T09:16:25;13.57;;;8.73;;
4766;SDS011;2397;53.576;9.746;2023-03-01T09:18:53;10.00;;;8.70;;
4766;SDS011;2397;53.576;9.746;2023-03-01T09:21:21;10.97;;;8.80;;
4766;SDS011;2397;53.576;9.746;2023-03-01T09:24:04;16.70;;;10.23;;
4766;SDS011;2397;53.576;9.746;2023-03-01T09:26:31;11.80;;;8.70;;
4766;SDS011;2397;53.576;9.746;2023-03-01T09:28:58;13.90;;;9.17;;
4766;SDS011;2397;53.576;9.746;2023-03-01T09:31:25;14.27;;;9.13;;
4766;SDS011;2397;53.576;9.746;2023-03-01T09:33:52;13.40;;;8.27;;
4766;SDS011;2397;53.576;9.746;2023-03-01T09:36:20;11.53;;;7.50;;
4766;SDS011;2397;53.576;9.746;2023-03-01T09:38:49;11.40;;;8.10;;
4766;SDS011;2397;53.576;9.746;2023-03-01T09:41:26;13.47;;;9.07;;
4766;SDS011;2397;53.576;9.746;2023-03-01T09:46:48;12.77;;;9.40;;
4766;SDS011;2397;53.576;9.746;2023-03-01T09:49:15;15.63;;;8.23;;
4766;SDS011;2397;53.576;9.746;2023-03-01T09:51:50;12.47;;;8.50;;
4766;SDS011;2397;53.576;9.746;2023-03-01T09:54:21;9.90;;;8.10;;
4766;SDS011;2397;53.576;9.746;2023-03-01T09:56:57;11.60;;;8.90;;
4766;SDS011;2397;53.576;9.746;2023-03-01T10:05:34;13.83;;;8.07;;
4766;SDS011;2397;53.576;9.746;2023-03-01T10:10:35;8.73;;;7.10;;
4766;SDS011;2397;53.576;9.746;2023-03-01T10:13:14;11.33;;;7.80;;
4766;SDS011;2397;53.576;9.746;2023-03-01T10:15:50;9.73;;;7.70;;
4766;SDS011;2397;53.576;9.746;2023-03-01T10:18:28;11.83;;;9.20;;
4766;SDS011;2397;53.576;9.746;2023-03-01T10:21:01;9.90;;;8.10;;
4766;SDS011;2397;53.576;9.746;2023-03-01T10:23:34;13.80;;;10.03;;
4766;SDS011;2397;53.576;9.746;2023-03-01T10:29:08;9.30;;;8.33;;
4766;SDS011;2397;53.576;9.746;2023-03-01T10:31:46;12.27;;;9.27;;
4766;SDS011;2397;53.576;9.746;2023-03-01T10:34:34;15.30;;;9.47;;
4766;SDS011;2397;53.576;9.746;2023-03-01T10:37:22;10.03;;;7.63;;
4766;SDS011;2397;53.576;9.746;2023-03-01T10:39:57;10.20;;;7.83;;
4766;SDS011;2397;53.576;9.746;2023-03-01T10:48:15;8.47;;;6.93;;
4766;SDS011;2397;53.576;9.746;2023-03-01T10:50:44;10.77;;;7.57;;
4766;SDS011;2397;53.576;9.746;2023-03-01T10:53:19;9.80;;;7.03;;
4766;SDS011;2397;53.576;9.746;2023-03-01T10:55:56;7.30;;;6.47;;
4766;SDS011;2397;53.576;9.746;2023-03-01T10:58:25;12.20;;;7.60;;
4766;SDS011;2397;53.576;9.746;2023-03-01T11:00:56;10.83;;;7.67;;
4766;SDS011;2397;53.576;9.746;2023-03-01T11:03:26;11.43;;;7.80;;
4766;SDS011;2397;53.576;9.746;2023-03-01T11:05:58;13.30;;;7.63;;
4766;SDS011;2397;53.576;9.746;2023-03-01T11:08:43;10.87;;;7.40;;
4766;SDS011;2397;53.576;9.746;2023-03-01T11:13:53;9.60;;;6.90;;
4766;SDS011;2397;53.576;9.746;2023-03-01T11:16:31;12.13;;;6.77;;
4766;SDS011;2397;53.576;9.746;2023-03-01T11:24:19;12.60;;;9.30;;
4766;SDS011;2397;53.576;9.746;2023-03-01T11:26:53;14.93;;;10.03;;
4766;SDS011;2397;53.576;9.746;2023-03-01T11:29:27;13.80;;;9.90;;
4766;SDS011;2397;53.576;9.746;2023-03-01T11:32:14;11.90;;;7.70;;
4766;SDS011;2397;53.576;9.746;2023-03-01T11:34:48;11.20;;;8.20;;
4766;SDS011;2397;53.576;9.746;2023-03-01T11:37:21;11.77;;;8.17;;
4766;SDS011;2397;53.576;9.746;2023-03-01T11:39:57;12.90;;;9.10;;
4766;SDS011;2397;53.576;9.746;2023-03-01T11:42:36;11.00;;;8.03;;
4766;SDS011;2397;53.576;9.746;2023-03-01T11:45:11;12.13;;;8.00;;
4766;SDS011;2397;53.576;9.746;2023-03-01T11:47:42;13.60;;;8.93;;
4766;SDS011;2397;53.576;9.746;2023-03-01T11:53:16;10.83;;;7.30;;
4766;SDS011;2397;53.576;9.746;2023-03-01T11:58:35;11.20;;;7.33;;
4766;SDS011;2397;53.576;9.746;2023-03-01T12:12:30;11.97;;;8.00;;
4766;SDS011;2397;53.576;9.746;2023-03-01T12:20:34;10.87;;;7.50;;
4766;SDS011;2397;53.576;9.746;2023-03-01T12:23:35;11.80;;;8.07;;
4766;SDS011;2397;53.576;9.746;2023-03-01T12:26:10;11.97;;;8.37;;
4766;SDS011;2397;53.576;9.746;2023-03-01T12:28:51;11.30;;;8.00;;
4766;SDS011;2397;53.576;9.746;2023-03-01T12:31:30;12.93;;;9.00;;
4766;SDS011;2397;53.576;9.746;2023-03-01T12:37:07;13.20;;;8.03;;
4766;SDS011;2397;53.576;9.746;2023-03-01T12:42:54;11.00;;;8.57;;
4766;SDS011;2397;53.576;9.746;2023-03-01T12:48:34;13.70;;;9.47;;
4766;SDS011;2397;53.576;9.746;2023-03-01T12:51:15;13.53;;;9.60;;
4766;SDS011;2397;53.576;9.746;2023-03-01T12:53:47;17.53;;;10.80;;
4766;SDS011;2397;53.576;9.746;2023-03-01T12:56:19;16.80;;;10.90;;
4766;SDS011;2397;53.576;9.746;2023-03-01T13:04:28;20.03;;;12.37;;
4766;SDS011;2397;53.576;9.746;2023-03-01T13:07:02;17.80;;;12.50;;
4766;SDS011;2397;53.576;9.746;2023-03-01T13:12:52;25.87;;;15.00;;
4766;SDS011;2397;53.576;9.746;2023-03-01T13:15:36;20.83;;;14.43;;
4766;SDS011;2397;53.576;9.746;2023-03-01T13:23:31;20.30;;;13.43;;
4766;SDS011;2397;53.576;9.746;2023-03-01T13:26:17;18.90;;;13.20;;
4766;SDS011;2397;53.576;9.746;2023-03-01T13:39:03;20.80;;;13.43;;
4766;SDS011;2397;53.576;9.746;2023-03-01T13:44:25;21.10;;;13.90;;
4766;SDS011;2397;53.576;9.746;2023-03-01T13:46:57;20.10;;;13.13;;
4766;SDS011;2397;53.576;9.746;2023-03-01T13:49:26;20.90;;;13.80;;
4766;SDS011;2397;53.576;9.746;2023-03-01T13:52:21;16.50;;;12.23;;
4766;SDS011;2397;53.576;9.746;2023-03-01T13:54:50;22.80;;;14.13;;
4766;SDS011;2397;53.576;9.746;2023-03-01T13:57:19;21.50;;;13.57;;
4766;SDS011;2397;53.576;9.746;2023-03-01T13:59:50;21.97;;;14.20;;
4766;SDS011;2397;53.576;9.746;2023-03-01T14:02:17;23.97;;;13.97;;
4766;SDS011;2397;53.576;9.746;2023-03-01T14:04:44;23.40;;;14.17;;
4766;SDS011;2397;53.576;9.746;2023-03-01T14:07:22;23.70;;;14.13;;
4766;SDS011;2397;53.576;9.746;2023-03-01T14:09:56;23.10;;;13.50;;
4766;SDS011;2397;53.576;9.746;2023-03-01T14:15:08;25.43;;;12.73;;
4766;SDS011;2397;53.576;9.746;2023-03-01T14:20:41;20.57;;;12.50;;
4766;SDS011;2397;53.576;9.746;2023-03-01T14:23:14;17.47;;;12.47;;
4766;SDS011;2397;53.576;9.746;2023-03-01T14:26:02;15.20;;;11.20;;
4766;SDS011;2397;53.576;9.746;2023-03-01T14:28:32;18.10;;;11.23;;
4766;SDS011;2397;53.576;9.746;2023-03-01T14:31:03;14.93;;;10.17;;
4766;SDS011;2397;53.576;9.746;2023-03-01T14:33:54;13.40;;;8.90;;
4766;SDS011;2397;53.576;9.746;2023-03-01T14:36:25;14.17;;;8.60;;
4766;SDS011;2397;53.576;9.746;2023-03-01T14:38:54;19.13;;;11.30;;
4766;SDS011;2397;53.576;9.746;2023-03-01T14:41:21;15.03;;;9.70;;
4766;SDS011;2397;53.576;9.746;2023-03-01T14:46:45;15.03;;;10.17;;
4766;SDS011;2397;53.576;9.746;2023-03-01T14:49:19;11.53;;;9.10;;
4766;SDS011;2397;53.576;9.746;2023-03-01T14:57:16;8.50;;;6.90;;
4766;SDS011;2397;53.576;9.746;2023-03-01T14:59:45;11.40;;;8.20;;
4766;SDS011;2397;53.576;9.746;2023-03-01T15:02:15;13.57;;;9.00;;
4766;SDS011;2397;53.576;9.746;2023-03-01T15:04:46;13.57;;;9.80;;
4766;SDS011;2397;53.576;9.746;2023-03-01T15:07:15;11.67;;;7.50;;
4766;SDS011;2397;53.576;9.746;2023-03-01T15:09:41;10.57;;;8.17;;
4766;SDS011;2397;53.576;9.746;2023-03-01T15:14:53;10.13;;;7.17;;
4766;SDS011;2397;53.576;9.746;2023-03-01T15:20:04;10.07;;;7.03;;
4766;SDS011;2397;53.576;9.746;2023-03-01T15:22:33;8.77;;;6.43;;
4766;SDS011;2397;53.576;9.746;2023-03-01T15:25:01;9.93;;;6.40;;
4766;SDS011;2397;53.576;9.746;2023-03-01T15:27:27;13.00;;;6.40;;
4766;SDS011;2397;53.576;9.746;2023-03-01T15:29:58;7.83;;;7.00;;
4766;SDS011;2397;53.576;9.746;2023-03-01T15:38:25;8.10;;;6.00;;
4766;SDS011;2397;53.576;9.746;2023-03-01T15:40:53;10.63;;;6.90;;
4766;SDS011;2397;53.576;9.746;2023-03-01T15:46:17;12.03;;;7.00;;
4766;SDS011;2397;53.576;9.746;2023-03-01T15:48:46;8.90;;;6.80;;
4766;SDS011;2397;53.576;9.746;2023-03-01T15:51:15;10.30;;;6.97;;
4766;SDS011;2397;53.576;9.746;2023-03-01T15:53:43;7.60;;;6.50;;
4766;SDS011;2397;53.576;9.746;2023-03-01T15:56:19;9.17;;;6.87;;
4766;SDS011;2397;53.576;9.746;2023-03-01T15:58:46;11.93;;;7.10;;
4766;SDS011;2397;53.576;9.746;2023-03-01T16:01:13;12.03;;;8.43;;
4766;SDS011;2397;53.576;9.746;2023-03-01T16:03:41;14.00;;;7.97;;
4766;SDS011;2397;53.576;9.746;2023-03-01T16:06:09;13.20;;;8.43;;
4766;SDS011;2397;53.576;9.746;2023-03-01T16:08:36;11.47;;;8.77;;
4766;SDS011;2397;53.576;9.746;2023-03-01T16:11:04;13.10;;;9.30;;
4766;SDS011;2397;53.576;9.746;2023-03-01T16:13:39;11.03;;;9.00;;
4766;SDS011;2397;53.576;9.746;2023-03-01T16:16:05;14.40;;;9.53;;
4766;SDS011;2397;53.576;9.746;2023-03-01T16:18:32;15.60;;;10.70;;
4766;SDS011;2397;53.576;9.746;2023-03-01T16:20:58;14.83;;;10.20;;
4766;SDS011;2397;53.576;9.746;2023-03-01T16:23:25;15.33;;;10.33;;
4766;SDS011;2397;53.576;9.746;2023-03-01T16:25:51;16.27;;;11.50;;
4766;SDS011;2397;53.576;9.746;2023-03-01T16:28:18;22.87;;;12.60;;
4766;SDS011;2397;53.576;9.746;2023-03-01T16:30:47;18.93;;;10.80;;
4766;SDS011;2397;53.576;9.746;2023-03-01T16:33:15;16.60;;;11.30;;
4766;SDS011;2397;53.576;9.746;2023-03-01T16:35:59;15.00;;;10.23;;
4766;SDS011;2397;53.576;9.746;2023-03-01T16:38:28;17.47;;;11.27;;
4766;SDS011;2397;53.576;9.746;2023-03-01T16:40:55;15.90;;;10.03;;
4766;SDS011;2397;53.576;9.746;2023-03-01T16:43:21;14.90;;;9.87;;
4766;SDS011;2397;53.576;9.746;2023-03-01T16:45:47;15.17;;;10.10;;
4766;SDS011;2397;53.576;9.746;2023-03-01T16:48:14;17.10;;;10.33;;
4766;SDS011;2397;53.576;9.746;2023-03-01T16:50:40;15.00;;;9.80;;
4766;SDS011;2397;53.576;9.746;2023-03-01T16:53:07;13.70;;;9.30;;
4766;SDS011;2397;53.576;9.746;2023-03-01T16:55:33;14.27;;;10.50;;
4766;SDS011;2397;53.576;9.746;2023-03-01T16:58:00;13.30;;;9.60;;
4766;SDS011;2397;53.576;9.746;2023-03-01T17:00:27;14.20;;;8.97;;
4766;SDS011;2397;53.576;9.746;2023-03-01T17:02:54;13.90;;;8.70;;
4766;SDS011;2397;53.576;9.746;2023-03-01T17:05:21;12.00;;;8.33;;
4766;SDS011;2397;53.576;9.746;2023-03-01T17:07:50;13.20;;;8.90;;
4766;SDS011;2397;53.576;9.746;2023-03-01T17:10:16;10.63;;;7.97;;
4766;SDS011;2397;53.576;9.746;2023-03-01T17:12:43;11.20;;;7.80;;
4766;SDS011;2397;53.576;9.746;2023-03-01T17:15:09;12.23;;;7.67;;
4766;SDS011;2397;53.576;9.746;2023-03-01T17:17:38;11.27;;;8.57;;
4766;SDS011;2397;53.576;9.746;2023-03-01T17:20:04;11.50;;;7.80;;
4766;SDS011;2397;53.576;9.746;2023-03-01T17:22:31;13.83;;;8.57;;
4766;SDS011;2397;53.576;9.746;2023-03-01T17:24:57;19.33;;;9.07;;